sensor_id;sensor_type;location;lat;lon;timestamp;P1;durP1;ratioP1;P2;durP2;ratioP2
10967;SDS011;5536;49.602;10.980;2023-06-14T00:02:20;2.17;;;2.03;;
10967;SDS011;5536;49.602;10.980;2023-06-14T00:04:48;2.60;;;2.27;;
10967;SDS011;5536;49.602;10.980;2023-06-14T00:07:17;2.23;;;2.03;;
10967;SDS011;5536;49.602;10.980;2023-06-14T00:09:44;2.30;;;2.10;;
10967;SDS011;5536;49.602;10.980;2023-06-14T00:12:12;2.03;;;1.83;;
10967;SDS011;5536;49.602;10.980;2023-06-14T00:14:39;2.67;;;2.37;;
10967;SDS011;5536;49.602;10.980;2023-06-14T00:17:06;1.70;;;1.60;;
10967;SDS011;5536;49.602;10.980;2023-06-14T00:19:33;2.23;;;2.07;;
10967;SDS011;5536;49.602;10.980;2023-06-14T00:22:03;2.03;;;1.83;;
10967;SDS011;5536;49.602;10.980;2023-06-14T00:24:30;4.73;;;2.73;;
10967;SDS011;5536;49.602;10.980;2023-06-14T00:26:57;10.37;;;2.30;;
10967;SDS011;5536;49.602;10.980;2023-06-14T00:29:24;2.40;;;1.80;;
10967;SDS011;5536;49.602;10.980;2023-06-14T00:31:51;2.70;;;2.47;;
10967;SDS011;5536;49.602;10.980;2023-06-14T00:34:19;5.37;;;2.90;;
10967;SDS011;5536;49.602;10.980;2023-06-14T00:36:46;3.93;;;2.83;;
10967;SDS011;5536;49.602;10.980;2023-06-14T00:39:14;2.50;;;2.30;;
10967;SDS011;5536;49.602;10.980;2023-06-14T00:41:42;2.20;;;2.00;;
10967;SDS011;5536;49.602;10.980;2023-06-14T00:44:09;1.83;;;1.73;;
10967;SDS011;5536;49.602;10.980;2023-06-14T00:46:36;2.37;;;2.17;;
10967;SDS011;5536;49.602;10.980;2023-06-14T00:49:03;3.87;;;2.33;;
10967;SDS011;5536;49.602;10.980;2023-06-14T00:51:31;2.30;;;2.10;;
10967;SDS011;5536;49.602;10.980;2023-06-14T00:53:58;4.10;;;2.03;;
10967;SDS011;5536;49.602;10.980;2023-06-14T00:56:27;2.33;;;2.17;;
10967;SDS011;5536;49.602;10.980;2023-06-14T00:58:54;2.90;;;2.70;;
10967;SDS011;5536;49.602;10.980;2023-06-14T01:01:22;2.27;;;2.07;;
10967;SDS011;5536;49.602;10.980;2023-06-14T01:03:49;2.33;;;2.13;;
10967;SDS011;5536;49.602;10.980;2023-06-14T01:06:19;2.77;;;2.53;;
10967;SDS011;5536;49.602;10.980;2023-06-14T01:08:57;5.87;;;1.87;;
10967;SDS011;5536;49.602;10.980;2023-06-14T01:11:37;1.90;;;1.80;;
10967;SDS011;5536;49.602;10.980;2023-06-14T01:14:10;2.17;;;1.97;;
10967;SDS011;5536;49.602;10.980;2023-06-14T01:16:39;3.00;;;2.10;;
10967;SDS011;5536;49.602;10.980;2023-06-14T01:19:07;1.97;;;1.87;;
10967;SDS011;5536;49.602;10.980;2023-06-14T01:21:38;2.37;;;2.17;;
10967;SDS011;5536;49.602;10.980;2023-06-14T01:24:08;2.30;;;2.10;;
10967;SDS011;5536;49.602;10.980;2023-06-14T01:26:36;2.50;;;2.00;;
10967;SDS011;5536;49.602;10.980;2023-06-14T01:29:04;2.23;;;1.87;;
10967;SDS011;5536;49.602;10.980;2023-06-14T01:31:33;2.43;;;2.23;;
10967;SDS011;5536;49.602;10.980;2023-06-14T01:34:06;2.03;;;1.80;;
10967;SDS011;5536;49.602;10.980;2023-06-14T01:36:35;2.10;;;1.90;;
10967;SDS011;5536;49.602;10.980;2023-06-14T01:39:05;5.00;;;2.23;;
10967;SDS011;5536;49.602;10.980;2023-06-14T01:41:34;3.87;;;2.23;;
10967;SDS011;5536;49.602;10.980;2023-06-14T01:44:02;2.40;;;2.10;;
10967;SDS011;5536;49.602;10.980;2023-06-14T01:46:29;2.17;;;1.97;;
10967;SDS011;5536;49.602;10.980;2023-06-14T01:48:56;4.80;;;2.03;;
10967;SDS011;5536;49.602;10.980;2023-06-14T01:51:24;3.50;;;1.93;;
10967;SDS011;5536;49.602;10.980;2023-06-14T01:53:51;2.10;;;2.00;;
10967;SDS011;5536;49.602;10.980;2023-06-14T01:56:18;4.30;;;1.80;;
10967;SDS011;5536;49.602;10.980;2023-06-14T01:58:46;2.33;;;2.00;;
10967;SDS011;5536;49.602;10.980;2023-06-14T02:01:13;2.20;;;2.00;;
10967;SDS011;5536;49.602;10.980;2023-06-14T02:03:41;2.80;;;2.33;;
10967;SDS011;5536;49.602;10.980;2023-06-14T02:06:10;1.93;;;1.83;;
10967;SDS011;5536;49.602;10.980;2023-06-14T02:08:37;2.03;;;1.93;;
10967;SDS011;5536;49.602;10.980;2023-06-14T02:11:05;10.33;;;2.33;;
10967;SDS011;5536;49.602;10.980;2023-06-14T02:13:32;2.10;;;1.90;;
10967;SDS011;5536;49.602;10.980;2023-06-14T02:16:01;4.03;;;2.17;;
10967;SDS011;5536;49.602;10.980;2023-06-14T02:18:28;2.17;;;1.97;;
10967;SDS011;5536;49.602;10.980;2023-06-14T02:20:56;2.10;;;2.00;;
10967;SDS011;5536;49.602;10.980;2023-06-14T02:23:23;2.43;;;1.97;;
10967;SDS011;5536;49.602;10.980;2023-06-14T02:25:50;2.50;;;2.03;;
10967;SDS011;5536;49.602;10.980;2023-06-14T02:28:17;2.00;;;1.90;;
10967;SDS011;5536;49.602;10.980;2023-06-14T02:30:44;1.70;;;1.60;;
10967;SDS011;5536;49.602;10.980;2023-06-14T02:33:12;4.80;;;2.00;;
10967;SDS011;5536;49.602;10.980;2023-06-14T02:35:40;2.07;;;1.87;;
10967;SDS011;5536;49.602;10.980;2023-06-14T02:38:07;2.80;;;1.87;;
10967;SDS011;5536;49.602;10.980;2023-06-14T02:40:34;3.90;;;1.97;;
10967;SDS011;5536;49.602;10.980;2023-06-14T02:43:01;1.70;;;1.60;;
10967;SDS011;5536;49.602;10.980;2023-06-14T02:45:28;2.20;;;2.10;;
10967;SDS011;5536;49.602;10.980;2023-06-14T02:47:55;5.90;;;2.47;;
10967;SDS011;5536;49.602;10.980;2023-06-14T02:50:23;2.40;;;2.20;;
10967;SDS011;5536;49.602;10.980;2023-06-14T02:52:51;2.33;;;2.03;;
10967;SDS011;5536;49.602;10.980;2023-06-14T02:55:20;2.03;;;1.83;;
10967;SDS011;5536;49.602;10.980;2023-06-14T02:57:47;1.87;;;1.77;;
10967;SDS011;5536;49.602;10.980;2023-06-14T03:00:15;2.33;;;2.13;;
10967;SDS011;5536;49.602;10.980;2023-06-14T03:02:42;1.80;;;1.70;;
10967;SDS011;5536;49.602;10.980;2023-06-14T03:05:10;1.90;;;1.80;;
10967;SDS011;5536;49.602;10.980;2023-06-14T03:07:39;2.07;;;1.87;;
10967;SDS011;5536;49.602;10.980;2023-06-14T03:10:10;2.00;;;1.90;;
10967;SDS011;5536;49.602;10.980;2023-06-14T03:12:38;2.50;;;2.10;;
10967;SDS011;5536;49.602;10.980;2023-06-14T03:15:05;2.10;;;2.00;;
10967;SDS011;5536;49.602;10.980;2023-06-14T03:17:33;2.33;;;2.00;;
10967;SDS011;5536;49.602;10.980;2023-06-14T03:20:04;2.67;;;2.47;;
10967;SDS011;5536;49.602;10.980;2023-06-14T03:22:33;4.73;;;2.40;;
10967;SDS011;5536;49.602;10.980;2023-06-14T03:25:01;1.90;;;1.80;;
10967;SDS011;5536;49.602;10.980;2023-06-14T03:27:30;1.87;;;1.77;;
10967;SDS011;5536;49.602;10.980;2023-06-14T03:29:57;2.30;;;2.10;;
10967;SDS011;5536;49.602;10.980;2023-06-14T03:32:24;2.20;;;2.10;;
10967;SDS011;5536;49.602;10.980;2023-06-14T03:34:52;2.00;;;1.90;;
10967;SDS011;5536;49.602;10.980;2023-06-14T03:37:19;2.70;;;2.47;;
10967;SDS011;5536;49.602;10.980;2023-06-14T03:39:46;2.57;;;2.20;;
10967;SDS011;5536;49.602;10.980;2023-06-14T03:42:15;1.77;;;1.67;;
10967;SDS011;5536;49.602;10.980;2023-06-14T03:44:42;5.27;;;2.23;;
10967;SDS011;5536;49.602;10.980;2023-06-14T03:47:09;2.27;;;2.13;;
10967;SDS011;5536;49.602;10.980;2023-06-14T03:49:36;2.23;;;1.97;;
10967;SDS011;5536;49.602;10.980;2023-06-14T03:52:04;1.80;;;1.70;;
10967;SDS011;5536;49.602;10.980;2023-06-14T03:54:31;2.10;;;1.73;;
10967;SDS011;5536;49.602;10.980;2023-06-14T03:56:59;2.07;;;1.80;;
10967;SDS011;5536;49.602;10.980;2023-06-14T03:59:27;2.20;;;2.10;;
10967;SDS011;5536;49.602;10.980;2023-06-14T04:01:54;3.90;;;2.67;;
10967;SDS011;5536;49.602;10.980;2023-06-14T04:04:22;2.33;;;2.20;;
10967;SDS011;5536;49.602;10.980;2023-06-14T04:06:54;2.10;;;1.80;;
10967;SDS011;5536;49.602;10.980;2023-06-14T04:09:23;2.00;;;1.90;;
10967;SDS011;5536;49.602;10.980;2023-06-14T04:11:51;3.23;;;1.90;;
10967;SDS011;5536;49.602;10.980;2023-06-14T04:14:18;2.20;;;2.10;;
10967;SDS011;5536;49.602;10.980;2023-06-14T04:16:47;7.40;;;2.23;;
10967;SDS011;5536;49.602;10.980;2023-06-14T04:19:15;2.00;;;1.87;;
10967;SDS011;5536;49.602;10.980;2023-06-14T04:21:42;3.33;;;2.60;;
10967;SDS011;5536;49.602;10.980;2023-06-14T04:24:10;2.37;;;2.17;;
10967;SDS011;5536;49.602;10.980;2023-06-14T04:26:38;2.10;;;2.00;;
10967;SDS011;5536;49.602;10.980;2023-06-14T04:29:05;2.13;;;1.93;;
10967;SDS011;5536;49.602;10.980;2023-06-14T04:31:34;2.13;;;2.00;;
10967;SDS011;5536;49.602;10.980;2023-06-14T04:34:06;3.20;;;2.30;;
10967;SDS011;5536;49.602;10.980;2023-06-14T04:36:33;2.40;;;2.20;;
10967;SDS011;5536;49.602;10.980;2023-06-14T04:39:02;11.03;;;2.43;;
10967;SDS011;5536;49.602;10.980;2023-06-14T04:41:29;1.97;;;1.80;;
10967;SDS011;5536;49.602;10.980;2023-06-14T04:43:57;3.47;;;2.37;;
10967;SDS011;5536;49.602;10.980;2023-06-14T04:46:26;3.03;;;2.10;;
10967;SDS011;5536;49.602;10.980;2023-06-14T04:48:54;2.23;;;2.10;;
10967;SDS011;5536;49.602;10.980;2023-06-14T04:51:23;2.60;;;2.40;;
10967;SDS011;5536;49.602;10.980;2023-06-14T04:53:55;3.07;;;1.93;;
10967;SDS011;5536;49.602;10.980;2023-06-14T04:56:23;3.40;;;2.40;;
10967;SDS011;5536;49.602;10.980;2023-06-14T04:58:51;1.93;;;1.83;;
10967;SDS011;5536;49.602;10.980;2023-06-14T05:01:21;2.20;;;2.00;;
10967;SDS011;5536;49.602;10.980;2023-06-14T05:03:49;2.87;;;2.37;;
10967;SDS011;5536;49.602;10.980;2023-06-14T05:06:17;1.77;;;1.67;;
10967;SDS011;5536;49.602;10.980;2023-06-14T05:08:46;2.27;;;2.07;;
10967;SDS011;5536;49.602;10.980;2023-06-14T05:11:13;2.23;;;2.10;;
10967;SDS011;5536;49.602;10.980;2023-06-14T05:13:42;2.20;;;2.10;;
10967;SDS011;5536;49.602;10.980;2023-06-14T05:16:09;2.63;;;2.20;;
10967;SDS011;5536;49.602;10.980;2023-06-14T05:18:37;2.67;;;2.47;;
10967;SDS011;5536;49.602;10.980;2023-06-14T05:21:05;2.20;;;2.00;;
10967;SDS011;5536;49.602;10.980;2023-06-14T05:23:32;2.20;;;2.10;;
10967;SDS011;5536;49.602;10.980;2023-06-14T05:26:01;2.30;;;2.10;;
10967;SDS011;5536;49.602;10.980;2023-06-14T05:28:29;2.03;;;1.83;;
10967;SDS011;5536;49.602;10.980;2023-06-14T05:30:57;1.97;;;1.87;;
10967;SDS011;5536;49.602;10.980;2023-06-14T05:33:24;2.53;;;2.30;;
10967;SDS011;5536;49.602;10.980;2023-06-14T05:35:51;2.23;;;2.03;;
10967;SDS011;5536;49.602;10.980;2023-06-14T05:38:18;1.77;;;1.67;;
10967;SDS011;5536;49.602;10.980;2023-06-14T05:40:45;2.30;;;2.10;;
10967;SDS011;5536;49.602;10.980;2023-06-14T05:43:14;2.97;;;1.60;;
10967;SDS011;5536;49.602;10.980;2023-06-14T05:45:41;1.90;;;1.70;;
10967;SDS011;5536;49.602;10.980;2023-06-14T05:48:08;1.90;;;1.80;;
10967;SDS011;5536;49.602;10.980;2023-06-14T05:50:35;2.00;;;1.70;;
10967;SDS011;5536;49.602;10.980;2023-06-14T05:53:03;3.07;;;2.27;;
10967;SDS011;5536;49.602;10.980;2023-06-14T05:55:30;4.07;;;2.27;;
10967;SDS011;5536;49.602;10.980;2023-06-14T05:57:57;2.27;;;2.00;;
10967;SDS011;5536;49.602;10.980;2023-06-14T06:00:25;1.80;;;1.70;;
10967;SDS011;5536;49.602;10.980;2023-06-14T06:02:52;2.40;;;2.20;;
10967;SDS011;5536;49.602;10.980;2023-06-14T06:05:22;2.77;;;2.33;;
10967;SDS011;5536;49.602;10.980;2023-06-14T06:07:49;2.60;;;2.23;;
10967;SDS011;5536;49.602;10.980;2023-06-14T06:10:16;1.80;;;1.43;;
10967;SDS011;5536;49.602;10.980;2023-06-14T06:12:43;1.43;;;1.43;;
10967;SDS011;5536;49.602;10.980;2023-06-14T06:15:12;3.13;;;2.33;;
10967;SDS011;5536;49.602;10.980;2023-06-14T06:17:41;3.13;;;2.20;;
10967;SDS011;5536;49.602;10.980;2023-06-14T06:20:08;2.60;;;2.33;;
10967;SDS011;5536;49.602;10.980;2023-06-14T06:22:36;2.33;;;1.77;;
10967;SDS011;5536;49.602;10.980;2023-06-14T06:25:04;2.23;;;2.00;;
10967;SDS011;5536;49.602;10.980;2023-06-14T06:27:32;2.00;;;1.90;;
10967;SDS011;5536;49.602;10.980;2023-06-14T06:30:01;2.30;;;2.10;;
10967;SDS011;5536;49.602;10.980;2023-06-14T06:32:28;1.73;;;1.63;;
10967;SDS011;5536;49.602;10.980;2023-06-14T06:34:57;2.50;;;2.20;;
10967;SDS011;5536;49.602;10.980;2023-06-14T06:37:25;10.30;;;2.00;;
10967;SDS011;5536;49.602;10.980;2023-06-14T06:39:52;2.17;;;2.07;;
10967;SDS011;5536;49.602;10.980;2023-06-14T06:42:19;1.87;;;1.77;;
10967;SDS011;5536;49.602;10.980;2023-06-14T06:44:46;2.00;;;1.90;;
10967;SDS011;5536;49.602;10.980;2023-06-14T06:47:13;1.90;;;1.80;;
10967;SDS011;5536;49.602;10.980;2023-06-14T06:49:40;2.13;;;2.00;;
10967;SDS011;5536;49.602;10.980;2023-06-14T06:52:09;2.87;;;1.50;;
10967;SDS011;5536;49.602;10.980;2023-06-14T06:54:36;3.40;;;1.80;;
10967;SDS011;5536;49.602;10.980;2023-06-14T06:57:03;1.87;;;1.67;;
10967;SDS011;5536;49.602;10.980;2023-06-14T06:59:31;1.67;;;1.50;;
10967;SDS011;5536;49.602;10.980;2023-06-14T07:01:58;1.77;;;1.63;;
10967;SDS011;5536;49.602;10.980;2023-06-14T07:04:25;1.80;;;1.70;;
10967;SDS011;5536;49.602;10.980;2023-06-14T07:06:52;2.47;;;1.53;;
10967;SDS011;5536;49.602;10.980;2023-06-14T07:09:20;1.53;;;1.43;;
10967;SDS011;5536;49.602;10.980;2023-06-14T07:11:49;2.10;;;1.90;;
10967;SDS011;5536;49.602;10.980;2023-06-14T07:14:16;2.83;;;1.97;;
10967;SDS011;5536;49.602;10.980;2023-06-14T07:16:43;1.47;;;1.47;;
10967;SDS011;5536;49.602;10.980;2023-06-14T07:19:11;1.60;;;1.50;;
10967;SDS011;5536;49.602;10.980;2023-06-14T07:21:38;1.87;;;1.77;;
10967;SDS011;5536;49.602;10.980;2023-06-14T07:24:05;1.30;;;1.30;;
10967;SDS011;5536;49.602;10.980;2023-06-14T07:26:34;2.00;;;1.90;;
10967;SDS011;5536;49.602;10.980;2023-06-14T07:29:01;1.63;;;1.53;;
10967;SDS011;5536;49.602;10.980;2023-06-14T07:31:29;1.93;;;1.80;;
10967;SDS011;5536;49.602;10.980;2023-06-14T07:33:56;1.77;;;1.67;;
10967;SDS011;5536;49.602;10.980;2023-06-14T07:36:23;1.80;;;1.70;;
10967;SDS011;5536;49.602;10.980;2023-06-14T07:38:50;1.97;;;1.80;;
10967;SDS011;5536;49.602;10.980;2023-06-14T07:41:17;2.03;;;1.83;;
10967;SDS011;5536;49.602;10.980;2023-06-14T07:43:46;2.03;;;1.88;;
10967;SDS011;5536;49.602;10.980;2023-06-14T07:46:14;2.63;;;1.90;;
10967;SDS011;5536;49.602;10.980;2023-06-14T07:48:41;7.90;;;2.15;;
10967;SDS011;5536;49.602;10.980;2023-06-14T07:51:08;2.53;;;1.52;;
10967;SDS011;5536;49.602;10.980;2023-06-14T07:53:35;2.88;;;1.77;;
10967;SDS011;5536;49.602;10.980;2023-06-14T07:56:02;3.28;;;2.05;;
10967;SDS011;5536;49.602;10.980;2023-06-14T07:58:30;2.13;;;1.85;;
10967;SDS011;5536;49.602;10.980;2023-06-14T08:00:58;1.63;;;1.52;;
10967;SDS011;5536;49.602;10.980;2023-06-14T08:03:28;3.13;;;1.77;;
10967;SDS011;5536;49.602;10.980;2023-06-14T08:05:55;1.75;;;1.65;;
10967;SDS011;5536;49.602;10.980;2023-06-14T08:08:22;2.38;;;1.42;;
10967;SDS011;5536;49.602;10.980;2023-06-14T08:10:49;5.70;;;1.60;;
10967;SDS011;5536;49.602;10.980;2023-06-14T08:13:16;1.63;;;1.52;;
10967;SDS011;5536;49.602;10.980;2023-06-14T08:15:43;2.00;;;1.80;;
10967;SDS011;5536;49.602;10.980;2023-06-14T08:18:12;2.38;;;2.17;;
10967;SDS011;5536;49.602;10.980;2023-06-14T08:20:39;1.70;;;1.60;;
10967;SDS011;5536;49.602;10.980;2023-06-14T08:23:06;2.58;;;1.95;;
10967;SDS011;5536;49.602;10.980;2023-06-14T08:25:34;1.80;;;1.70;;
10967;SDS011;5536;49.602;10.980;2023-06-14T08:28:01;2.22;;;2.03;;
10967;SDS011;5536;49.602;10.980;2023-06-14T08:30:28;1.60;;;1.50;;
10967;SDS011;5536;49.602;10.980;2023-06-14T08:32:55;2.13;;;1.92;;
10967;SDS011;5536;49.602;10.980;2023-06-14T08:35:24;1.42;;;1.33;;
10967;SDS011;5536;49.602;10.980;2023-06-14T08:37:50;2.17;;;2.05;;
10967;SDS011;5536;49.602;10.980;2023-06-14T08:40:18;2.75;;;2.13;;
10967;SDS011;5536;49.602;10.980;2023-06-14T08:42:47;1.92;;;1.75;;
10967;SDS011;5536;49.602;10.980;2023-06-14T08:45:17;4.47;;;1.73;;
10967;SDS011;5536;49.602;10.980;2023-06-14T08:47:45;1.38;;;1.27;;
10967;SDS011;5536;49.602;10.980;2023-06-14T08:50:17;1.40;;;1.35;;
10967;SDS011;5536;49.602;10.980;2023-06-14T08:52:48;1.80;;;1.70;;
10967;SDS011;5536;49.602;10.980;2023-06-14T08:55:22;2.08;;;1.65;;
10967;SDS011;5536;49.602;10.980;2023-06-14T08:57:53;2.50;;;1.98;;
10967;SDS011;5536;49.602;10.980;2023-06-14T09:00:21;2.90;;;2.10;;
10967;SDS011;5536;49.602;10.980;2023-06-14T09:02:49;3.05;;;2.47;;
10967;SDS011;5536;49.602;10.980;2023-06-14T09:05:20;2.13;;;1.98;;
10967;SDS011;5536;49.602;10.980;2023-06-14T09:07:50;6.20;;;2.50;;
10967;SDS011;5536;49.602;10.980;2023-06-14T09:10:17;1.40;;;1.30;;
10967;SDS011;5536;49.602;10.980;2023-06-14T09:12:45;1.52;;;1.42;;
10967;SDS011;5536;49.602;10.980;2023-06-14T09:15:12;1.63;;;1.40;;
10967;SDS011;5536;49.602;10.980;2023-06-14T09:17:39;2.15;;;1.63;;
10967;SDS011;5536;49.602;10.980;2023-06-14T09:20:07;1.70;;;1.60;;
10967;SDS011;5536;49.602;10.980;2023-06-14T09:22:38;1.63;;;1.52;;
10967;SDS011;5536;49.602;10.980;2023-06-14T09:25:08;1.67;;;1.52;;
10967;SDS011;5536;49.602;10.980;2023-06-14T09:27:37;1.35;;;1.35;;
10967;SDS011;5536;49.602;10.980;2023-06-14T09:30:06;1.40;;;1.30;;
10967;SDS011;5536;49.602;10.980;2023-06-14T09:32:37;3.67;;;1.38;;
10967;SDS011;5536;49.602;10.980;2023-06-14T09:35:05;5.05;;;1.60;;
10967;SDS011;5536;49.602;10.980;2023-06-14T09:37:33;1.23;;;1.20;;
10967;SDS011;5536;49.602;10.980;2023-06-14T09:40:00;1.58;;;1.45;;
10967;SDS011;5536;49.602;10.980;2023-06-14T09:42:31;1.60;;;1.50;;
10967;SDS011;5536;49.602;10.980;2023-06-14T09:45:00;2.20;;;1.90;;
10967;SDS011;5536;49.602;10.980;2023-06-14T09:47:29;1.45;;;1.35;;
10967;SDS011;5536;49.602;10.980;2023-06-14T09:49:57;1.83;;;1.60;;
10967;SDS011;5536;49.602;10.980;2023-06-14T09:52:25;2.00;;;1.77;;
10967;SDS011;5536;49.602;10.980;2023-06-14T09:54:53;1.70;;;1.60;;
10967;SDS011;5536;49.602;10.980;2023-06-14T09:57:22;1.75;;;1.60;;
10967;SDS011;5536;49.602;10.980;2023-06-14T09:59:53;1.95;;;1.50;;
10967;SDS011;5536;49.602;10.980;2023-06-14T10:02:26;1.98;;;1.65;;
10967;SDS011;5536;49.602;10.980;2023-06-14T10:04:58;1.52;;;1.42;;
10967;SDS011;5536;49.602;10.980;2023-06-14T10:07:31;1.33;;;1.33;;
10967;SDS011;5536;49.602;10.980;2023-06-14T10:10:01;1.98;;;1.30;;
10967;SDS011;5536;49.602;10.980;2023-06-14T10:12:28;1.60;;;1.50;;
10967;SDS011;5536;49.602;10.980;2023-06-14T10:14:58;4.55;;;1.27;;
10967;SDS011;5536;49.602;10.980;2023-06-14T10:17:35;1.20;;;1.20;;
10967;SDS011;5536;49.602;10.980;2023-06-14T10:20:13;1.23;;;1.20;;
10967;SDS011;5536;49.602;10.980;2023-06-14T10:22:49;1.25;;;1.20;;
10967;SDS011;5536;49.602;10.980;2023-06-14T10:25:26;3.42;;;1.95;;
10967;SDS011;5536;49.602;10.980;2023-06-14T10:33:32;1.13;;;1.13;;
10967;SDS011;5536;49.602;10.980;2023-06-14T10:36:08;1.17;;;1.08;;
10967;SDS011;5536;49.602;10.980;2023-06-14T10:38:36;1.83;;;1.67;;
10967;SDS011;5536;49.602;10.980;2023-06-14T10:41:05;3.90;;;1.48;;
10967;SDS011;5536;49.602;10.980;2023-06-14T10:43:33;1.50;;;1.40;;
10967;SDS011;5536;49.602;10.980;2023-06-14T10:46:17;1.48;;;1.38;;
10967;SDS011;5536;49.602;10.980;2023-06-14T10:48:48;1.63;;;1.50;;
10967;SDS011;5536;49.602;10.980;2023-06-14T10:51:18;1.80;;;1.70;;
10967;SDS011;5536;49.602;10.980;2023-06-14T10:53:46;1.42;;;1.33;;
10967;SDS011;5536;49.602;10.980;2023-06-14T10:56:24;1.08;;;1.08;;
10967;SDS011;5536;49.602;10.980;2023-06-14T10:58:54;1.73;;;1.63;;
10967;SDS011;5536;49.602;10.980;2023-06-14T11:01:27;1.13;;;1.13;;
10967;SDS011;5536;49.602;10.980;2023-06-14T11:04:08;1.10;;;1.10;;
10967;SDS011;5536;49.602;10.980;2023-06-14T11:06:46;2.05;;;1.70;;
10967;SDS011;5536;49.602;10.980;2023-06-14T11:09:31;3.20;;;1.33;;
10967;SDS011;5536;49.602;10.980;2023-06-14T11:12:22;1.33;;;1.23;;
10967;SDS011;5536;49.602;10.980;2023-06-14T11:14:51;1.50;;;1.40;;
10967;SDS011;5536;49.602;10.980;2023-06-14T11:17:19;1.30;;;1.20;;
10967;SDS011;5536;49.602;10.980;2023-06-14T11:19:46;2.05;;;1.38;;
10967;SDS011;5536;49.602;10.980;2023-06-14T11:22:13;1.80;;;1.50;;
10967;SDS011;5536;49.602;10.980;2023-06-14T11:24:42;1.58;;;1.38;;
10967;SDS011;5536;49.602;10.980;2023-06-14T11:27:09;1.45;;;1.35;;
10967;SDS011;5536;49.602;10.980;2023-06-14T11:29:37;1.52;;;1.30;;
10967;SDS011;5536;49.602;10.980;2023-06-14T11:32:06;1.40;;;1.30;;
10967;SDS011;5536;49.602;10.980;2023-06-14T11:34:38;1.38;;;1.27;;
10967;SDS011;5536;49.602;10.980;2023-06-14T11:37:06;1.20;;;1.20;;
10967;SDS011;5536;49.602;10.980;2023-06-14T11:39:33;1.50;;;1.40;;
10967;SDS011;5536;49.602;10.980;2023-06-14T11:42:00;1.00;;;1.00;;
10967;SDS011;5536;49.602;10.980;2023-06-14T11:44:28;1.48;;;1.38;;
10967;SDS011;5536;49.602;10.980;2023-06-14T11:46:55;1.00;;;1.00;;
10967;SDS011;5536;49.602;10.980;2023-06-14T11:49:23;1.40;;;1.30;;
10967;SDS011;5536;49.602;10.980;2023-06-14T11:51:54;1.48;;;1.38;;
10967;SDS011;5536;49.602;10.980;2023-06-14T11:54:20;10.98;;;1.45;;
10967;SDS011;5536;49.602;10.980;2023-06-14T11:56:48;2.85;;;2.30;;
10967;SDS011;5536;49.602;10.980;2023-06-14T11:59:16;1.48;;;1.25;;
10967;SDS011;5536;49.602;10.980;2023-06-14T12:01:43;1.13;;;1.13;;
10967;SDS011;5536;49.602;10.980;2023-06-14T12:04:10;1.55;;;1.45;;
10967;SDS011;5536;49.602;10.980;2023-06-14T12:06:37;1.50;;;1.40;;
10967;SDS011;5536;49.602;10.980;2023-06-14T12:09:07;1.25;;;1.20;;
10967;SDS011;5536;49.602;10.980;2023-06-14T12:11:38;2.72;;;2.05;;
10967;SDS011;5536;49.602;10.980;2023-06-14T12:14:05;1.38;;;1.35;;
10967;SDS011;5536;49.602;10.980;2023-06-14T12:16:32;1.80;;;1.70;;
10967;SDS011;5536;49.602;10.980;2023-06-14T12:19:00;1.50;;;1.40;;
10967;SDS011;5536;49.602;10.980;2023-06-14T12:21:36;1.00;;;1.00;;
10967;SDS011;5536;49.602;10.980;2023-06-14T12:24:07;1.70;;;1.60;;
10967;SDS011;5536;49.602;10.980;2023-06-14T12:26:37;1.77;;;1.67;;
10967;SDS011;5536;49.602;10.980;2023-06-14T12:29:05;1.20;;;1.20;;
10967;SDS011;5536;49.602;10.980;2023-06-14T12:31:32;1.33;;;1.10;;
10967;SDS011;5536;49.602;10.980;2023-06-14T12:33:59;1.70;;;1.45;;
10967;SDS011;5536;49.602;10.980;2023-06-14T12:36:26;2.45;;;2.00;;
10967;SDS011;5536;49.602;10.980;2023-06-14T12:38:53;3.45;;;1.88;;
10967;SDS011;5536;49.602;10.980;2023-06-14T12:41:22;1.55;;;1.33;;
10967;SDS011;5536;49.602;10.980;2023-06-14T12:43:49;1.35;;;1.25;;
10967;SDS011;5536;49.602;10.980;2023-06-14T12:46:16;1.70;;;1.60;;
10967;SDS011;5536;49.602;10.980;2023-06-14T12:48:43;1.30;;;1.20;;
10967;SDS011;5536;49.602;10.980;2023-06-14T12:51:10;1.02;;;1.02;;
10967;SDS011;5536;49.602;10.980;2023-06-14T12:53:37;0.95;;;0.95;;
10967;SDS011;5536;49.602;10.980;2023-06-14T12:56:04;1.17;;;1.17;;
10967;SDS011;5536;49.602;10.980;2023-06-14T12:58:33;1.42;;;1.33;;
10967;SDS011;5536;49.602;10.980;2023-06-14T13:01:00;1.85;;;1.50;;
10967;SDS011;5536;49.602;10.980;2023-06-14T13:03:27;1.33;;;1.25;;
10967;SDS011;5536;49.602;10.980;2023-06-14T13:05:54;1.25;;;1.25;;
10967;SDS011;5536;49.602;10.980;2023-06-14T13:08:21;0.90;;;0.90;;
10967;SDS011;5536;49.602;10.980;2023-06-14T13:10:48;3.13;;;2.50;;
10967;SDS011;5536;49.602;10.980;2023-06-14T13:13:15;1.45;;;1.38;;
10967;SDS011;5536;49.602;10.980;2023-06-14T13:15:43;0.98;;;0.98;;
10967;SDS011;5536;49.602;10.980;2023-06-14T13:18:11;1.70;;;1.23;;
10967;SDS011;5536;49.602;10.980;2023-06-14T13:20:38;1.58;;;1.20;;
10967;SDS011;5536;49.602;10.980;2023-06-14T13:23:06;1.40;;;1.30;;
10967;SDS011;5536;49.602;10.980;2023-06-14T13:25:33;2.20;;;1.40;;
10967;SDS011;5536;49.602;10.980;2023-06-14T13:28:00;1.58;;;1.23;;
10967;SDS011;5536;49.602;10.980;2023-06-14T13:30:27;1.20;;;1.20;;
10967;SDS011;5536;49.602;10.980;2023-06-14T13:32:56;1.02;;;0.98;;
10967;SDS011;5536;49.602;10.980;2023-06-14T13:35:23;1.60;;;1.50;;
10967;SDS011;5536;49.602;10.980;2023-06-14T13:37:51;1.40;;;1.30;;
10967;SDS011;5536;49.602;10.980;2023-06-14T13:40:18;1.10;;;1.08;;
10967;SDS011;5536;49.602;10.980;2023-06-14T13:42:45;1.17;;;1.10;;
10967;SDS011;5536;49.602;10.980;2023-06-14T13:45:13;1.70;;;1.35;;
10967;SDS011;5536;49.602;10.980;2023-06-14T13:47:41;1.10;;;1.10;;
10967;SDS011;5536;49.602;10.980;2023-06-14T13:50:10;0.70;;;0.70;;
10967;SDS011;5536;49.602;10.980;2023-06-14T13:52:37;1.23;;;1.10;;
10967;SDS011;5536;49.602;10.980;2023-06-14T13:55:05;1.15;;;1.15;;
10967;SDS011;5536;49.602;10.980;2023-06-14T13:57:32;2.08;;;1.13;;
10967;SDS011;5536;49.602;10.980;2023-06-14T13:59:59;1.25;;;1.10;;
10967;SDS011;5536;49.602;10.980;2023-06-14T14:02:28;1.58;;;1.25;;
10967;SDS011;5536;49.602;10.980;2023-06-14T14:04:55;1.25;;;1.15;;
10967;SDS011;5536;49.602;10.980;2023-06-14T14:07:24;0.90;;;0.90;;
10967;SDS011;5536;49.602;10.980;2023-06-14T14:09:50;0.90;;;0.90;;
10967;SDS011;5536;49.602;10.980;2023-06-14T14:12:18;1.15;;;1.08;;
10967;SDS011;5536;49.602;10.980;2023-06-14T14:14:45;1.30;;;1.20;;
10967;SDS011;5536;49.602;10.980;2023-06-14T14:17:12;0.93;;;0.90;;
10967;SDS011;5536;49.602;10.980;2023-06-14T14:19:39;0.88;;;0.88;;
10967;SDS011;5536;49.602;10.980;2023-06-14T14:22:06;2.10;;;1.40;;
10967;SDS011;5536;49.602;10.980;2023-06-14T14:24:35;0.82;;;0.82;;
10967;SDS011;5536;49.602;10.980;2023-06-14T14:27:02;2.00;;;1.33;;
10967;SDS011;5536;49.602;10.980;2023-06-14T14:29:29;0.90;;;0.90;;
10967;SDS011;5536;49.602;10.980;2023-06-14T14:31:56;0.88;;;0.88;;
10967;SDS011;5536;49.602;10.980;2023-06-14T14:34:23;1.52;;;1.42;;
10967;SDS011;5536;49.602;10.980;2023-06-14T14:36:50;0.98;;;0.98;;
10967;SDS011;5536;49.602;10.980;2023-06-14T14:39:17;1.08;;;1.08;;
10967;SDS011;5536;49.602;10.980;2023-06-14T14:41:46;1.30;;;1.20;;
10967;SDS011;5536;49.602;10.980;2023-06-14T14:44:13;1.35;;;1.20;;
10967;SDS011;5536;49.602;10.980;2023-06-14T14:46:40;1.27;;;1.17;;
10967;SDS011;5536;49.602;10.980;2023-06-14T14:49:08;1.40;;;1.30;;
10967;SDS011;5536;49.602;10.980;2023-06-14T14:51:35;1.02;;;1.02;;
10967;SDS011;5536;49.602;10.980;2023-06-14T14:54:03;1.10;;;1.10;;
10967;SDS011;5536;49.602;10.980;2023-06-14T14:56:30;0.90;;;0.90;;
10967;SDS011;5536;49.602;10.980;2023-06-14T14:58:59;1.35;;;1.10;;
10967;SDS011;5536;49.602;10.980;2023-06-14T15:01:26;0.85;;;0.85;;